Time;durP1;ratioP1;P1;durP2;ratioP2;P2;SDS_P1;SDS_P2;PMS_P1;PMS_P2;Temp;Humidity;BMP_temperature;BMP_pressure;BME280_temperature;BME280_humidity;BME280_pressure;Samples;Min_cycle;Max_cycle;Signal;HPM_P1;HPM_P2
2022/03/11 00:00:36;;;;;;;44.72;30.62;;;9.90;68.90;;;;;;10904921;32;20039;-69
2022/03/11 00:06:43;;;;;;;34.10;23.70;;;9.80;68.80;;;;;;10904885;32;20027;-69
2022/03/11 00:12:45;;;;;;;40.15;27.75;;;9.70;68.90;;;;;;10904479;32;20023;-69
2022/03/11 00:18:47;;;;;;;37.80;28.10;;;9.60;69.10;;;;;;10904440;32;20391;-69
2022/03/11 00:24:49;;;;;;;28.95;21.60;;;9.50;69.30;;;;;;10909415;32;20027;-69
2022/03/11 00:30:51;;;;;;;30.62;20.85;;;9.40;69.50;;;;;;10910577;32;20391;-69
2022/03/11 00:36:53;;;;;;;40.10;26.25;;;9.30;69.80;;;;;;10911081;32;20023;-69
2022/03/11 00:42:58;;;;;;;42.72;30.92;;;9.20;69.90;;;;;;10910811;32;20031;-69
2022/03/11 00:49:00;;;;;;;38.88;27.85;;;9.30;69.90;;;;;;10897452;32;20038;-69
2022/03/11 00:55:03;;;;;;;43.90;32.83;;;9.30;69.80;;;;;;10910401;32;20031;-69
2022/03/11 01:01:05;;;;;;;41.10;29.15;;;9.40;69.90;;;;;;10910245;32;20041;-69
2022/03/11 01:07:07;;;;;;;38.10;24.70;;;9.40;69.90;;;;;;10910058;32;20023;-69
2022/03/11 01:13:09;;;;;;;36.83;27.85;;;9.40;69.70;;;;;;10909917;32;20327;-69
2022/03/11 01:19:11;;;;;;;36.58;25.98;;;9.30;70.30;;;;;;10909626;32;20050;-69
2022/03/11 01:25:14;;;;;;;46.78;32.97;;;9.20;70.60;;;;;;10895991;32;20086;-69
2022/03/11 01:31:17;;;;;;;46.53;34.80;;;9.20;70.70;;;;;;10909172;32;20100;-69
2022/03/11 01:37:19;;;;;;;41.65;25.20;;;9.20;70.90;;;;;;10908670;32;20016;-69
2022/03/11 01:43:21;;;;;;;43.87;31.17;;;9.20;70.90;;;;;;10904769;32;20027;-69
2022/03/11 01:49:23;;;;;;;40.60;29.55;;;9.20;71.20;;;;;;10908745;32;20332;-69
2022/03/11 01:55:26;;;;;;;47.85;32.58;;;9.10;71.20;;;;;;10908384;32;20031;-69
2022/03/11 02:01:28;;;;;;;36.30;26.27;;;9.10;70.90;;;;;;10904007;32;20015;-69
2022/03/11 02:07:31;;;;;;;35.95;25.77;;;9.00;71.00;;;;;;10907860;32;20023;-69
2022/03/11 02:13:49;;;;;;;36.72;27.58;;;9.00;71.30;;;;;;10907607;32;20031;-69
2022/03/11 02:19:51;;;;;;;43.03;27.90;;;9.00;71.30;;;;;;10907616;32;20023;-69
2022/03/11 02:25:54;;;;;;;35.45;25.67;;;9.00;71.30;;;;;;10906283;32;20019;-69
2022/03/11 02:31:56;;;;;;;38.90;28.27;;;9.00;71.20;;;;;;10902770;32;20045;-69
2022/03/11 02:37:58;;;;;;;30.60;20.42;;;9.00;71.20;;;;;;10906948;32;20031;-69
2022/03/11 02:44:00;;;;;;;32.72;21.05;;;8.90;71.20;;;;;;10906564;32;20019;-69
2022/03/11 02:50:02;;;;;;;25.75;19.30;;;9.00;71.20;;;;;;10892814;32;20011;-69
2022/03/11 02:56:05;;;;;;;33.15;21.65;;;9.00;71.50;;;;;;10906175;32;20023;-69
2022/03/11 03:02:10;;;;;;;28.45;20.05;;;9.00;71.60;;;;;;10902279;32;20420;-69
2022/03/11 03:08:12;;;;;;;22.95;14.05;;;9.10;71.50;;;;;;10905815;32;20037;-69
2022/03/11 03:14:14;;;;;;;21.77;15.02;;;9.00;71.20;;;;;;10905426;32;20027;-69
2022/03/11 03:20:17;;;;;;;20.90;13.62;;;9.00;71.20;;;;;;10905370;32;20093;-69
2022/03/11 03:26:20;;;;;;;19.15;12.30;;;9.10;71.40;;;;;;10905231;32;20023;-69
2022/03/11 03:32:22;;;;;;;22.45;16.00;;;9.10;71.10;;;;;;10905071;32;20027;-69
2022/03/11 03:38:26;;;;;;;17.55;12.02;;;9.00;71.20;;;;;;10904996;32;20019;-69
2022/03/11 03:44:28;;;;;;;20.23;14.45;;;9.10;71.20;;;;;;10904915;32;20319;-69
2022/03/11 03:50:30;;;;;;;19.33;11.27;;;9.00;71.60;;;;;;10904814;32;20016;-69
2022/03/11 03:56:36;;;;;;;16.40;10.60;;;9.00;71.40;;;;;;10892656;32;20065;-69
2022/03/11 04:02:48;;;;;;;23.33;13.90;;;8.90;71.60;;;;;;10907744;32;20023;-69
2022/03/11 04:08:50;;;;;;;19.42;11.80;;;8.90;71.70;;;;;;10911948;32;20065;-69
2022/03/11 04:14:52;;;;;;;18.85;12.95;;;8.90;71.70;;;;;;10911557;32;20027;-69
2022/03/11 04:20:55;;;;;;;19.17;13.20;;;8.80;71.90;;;;;;10911667;32;20019;-69
2022/03/11 04:26:57;;;;;;;21.10;13.60;;;8.90;71.80;;;;;;10911346;32;20043;-69
2022/03/11 04:32:59;;;;;;;16.05;11.35;;;8.90;71.60;;;;;;10911143;32;20084;-69
2022/03/11 04:39:01;;;;;;;21.67;15.02;;;8.90;71.60;;;;;;10907230;32;20102;-69
2022/03/11 04:45:04;;;;;;;25.33;15.48;;;8.90;71.70;;;;;;10897140;32;20041;-69
2022/03/11 04:51:06;;;;;;;13.57;9.60;;;8.90;71.70;;;;;;10910305;32;20020;-69
2022/03/11 04:57:08;;;;;;;16.52;11.77;;;8.90;71.80;;;;;;10908521;32;20027;-70
2022/03/11 05:03:10;;;;;;;22.67;13.85;;;8.80;71.70;;;;;;10910053;32;20020;-70
2022/03/11 05:09:12;;;;;;;18.27;11.70;;;8.80;71.70;;;;;;10904578;32;20053;-70
2022/03/11 05:15:16;;;;;;;19.52;12.48;;;8.90;71.50;;;;;;10906317;32;20343;-70
2022/03/11 05:21:20;;;;;;;13.15;9.38;;;8.80;71.40;;;;;;10909035;32;20038;-70
2022/03/11 05:34:05;;;;;;;18.83;11.68;;;8.80;71.50;;;;;;10908759;32;20061;-70
2022/03/11 05:40:09;;;;;;;14.93;10.38;;;8.80;71.50;;;;;;10908725;32;20047;-70
2022/03/11 05:46:11;;;;;;;24.12;13.15;;;9.00;71.40;;;;;;10905498;32;20058;-70
2022/03/11 05:52:14;;;;;;;16.15;10.43;;;9.10;71.60;;;;;;10908122;32;20019;-70
2022/03/11 05:58:16;;;;;;;14.93;10.52;;;9.20;71.40;;;;;;10907641;32;20046;-70
2022/03/11 06:04:18;;;;;;;12.80;8.73;;;9.30;71.10;;;;;;10907861;32;20316;-70
2022/03/11 06:10:20;;;;;;;11.57;7.70;;;9.40;70.80;;;;;;10907565;32;20019;-70
2022/03/11 06:16:22;;;;;;;13.05;9.35;;;9.50;70.50;;;;;;10907159;32;20023;-70
2022/03/11 06:22:24;;;;;;;15.85;10.27;;;9.60;70.30;;;;;;10907055;32;20026;-70
2022/03/11 06:28:26;;;;;;;19.02;12.15;;;9.70;70.00;;;;;;10903009;32;20042;-70
2022/03/11 06:34:29;;;;;;;13.25;9.68;;;9.80;69.80;;;;;;10906398;32;20031;-70
2022/03/11 06:40:32;;;;;;;13.38;9.35;;;9.90;69.50;;;;;;10880624;32;20028;-70
2022/03/11 06:46:34;;;;;;;15.30;11.73;;;10.10;69.50;;;;;;10868669;32;20020;-70
2022/03/11 06:52:37;;;;;;;16.52;11.00;;;10.10;69.30;;;;;;10867007;32;20444;-70
2022/03/11 06:58:39;;;;;;;17.65;12.63;;;10.20;69.20;;;;;;10868601;32;20027;-70
2022/03/11 07:04:41;;;;;;;19.48;11.80;;;10.40;69.20;;;;;;10856917;32;20301;-69
2022/03/11 07:10:44;;;;;;;18.55;11.98;;;10.60;68.80;;;;;;10867082;32;20023;-69
2022/03/11 07:16:47;;;;;;;23.80;12.70;;;10.50;68.60;;;;;;10881106;27;20083;-71
2022/03/11 07:22:49;;;;;;;16.42;9.93;;;10.50;68.60;;;;;;10904481;32;20023;-70
2022/03/11 07:28:54;;;;;;;19.33;12.85;;;10.50;68.80;;;;;;10900472;32;20031;-70
2022/03/11 07:34:56;;;;;;;14.18;9.27;;;10.60;68.40;;;;;;10866690;32;20039;-70
2022/03/11 07:40:59;;;;;;;15.60;10.00;;;10.50;69.00;;;;;;10893031;32;20065;-70
2022/03/11 07:47:01;;;;;;;12.40;8.48;;;10.70;69.00;;;;;;10887373;32;20031;-70
2022/03/11 07:53:03;;;;;;;17.02;10.65;;;10.70;68.60;;;;;;10891695;32;20292;-70
2022/03/11 07:59:10;;;;;;;16.15;11.05;;;10.70;68.50;;;;;;10895517;32;20027;-70
2022/03/11 08:05:15;;;;;;;13.55;8.30;;;10.80;68.40;;;;;;10877157;32;20041;-70
2022/03/11 08:11:17;;;;;;;14.93;9.10;;;10.70;68.40;;;;;;10866740;32;20447;-70
2022/03/11 08:17:20;;;;;;;15.15;11.27;;;10.70;68.40;;;;;;10862537;32;20066;-70
2022/03/11 08:23:26;;;;;;;14.45;9.35;;;10.70;68.40;;;;;;10866916;32;20049;-70
2022/03/11 08:29:33;;;;;;;15.27;10.50;;;10.60;68.30;;;;;;10864205;32;20054;-70
2022/03/11 08:35:35;;;;;;;22.13;14.20;;;10.40;67.90;;;;;;10866832;32;20019;-70
2022/03/11 08:41:38;;;;;;;14.77;10.80;;;10.50;68.50;;;;;;10866676;32;20404;-70
2022/03/11 08:47:41;;;;;;;17.23;11.35;;;10.50;68.00;;;;;;10868021;32;20023;-70
2022/03/11 08:53:45;;;;;;;18.27;11.07;;;10.60;68.00;;;;;;10872001;32;20058;-70
2022/03/11 08:59:47;;;;;;;20.88;12.85;;;10.50;67.50;;;;;;10859395;32;20020;-70
2022/03/11 09:05:49;;;;;;;16.25;10.60;;;10.60;67.90;;;;;;10872322;32;20046;-70
2022/03/11 09:11:51;;;;;;;19.52;12.23;;;10.70;67.80;;;;;;10870225;32;20035;-69
2022/03/11 09:17:54;;;;;;;14.57;11.75;;;10.80;67.50;;;;;;10870388;32;20427;-70
2022/03/11 09:24:02;;;;;;;13.75;9.80;;;10.90;67.00;;;;;;10867339;32;20306;-70
2022/03/11 09:30:06;;;;;;;17.00;11.75;;;10.70;66.80;;;;;;10858395;32;20024;-70
2022/03/11 09:36:09;;;;;;;16.20;10.02;;;10.60;66.80;;;;;;10871362;32;20085;-70
2022/03/11 09:42:11;;;;;;;15.57;11.80;;;10.70;66.90;;;;;;10871231;32;20293;-70
2022/03/11 09:48:16;;;;;;;15.95;9.55;;;10.80;66.80;;;;;;10857875;32;20054;-70
2022/03/11 09:54:18;;;;;;;20.10;12.75;;;10.90;67.00;;;;;;10867615;32;20063;-70
2022/03/11 10:00:20;;;;;;;16.12;9.52;;;10.90;66.10;;;;;;10888836;32;20023;-70
2022/03/11 10:06:40;;;;;;;16.27;9.15;;;10.90;67.00;;;;;;10894260;32;20046;-70
2022/03/11 10:12:52;;;;;;;19.27;11.38;;;11.00;66.70;;;;;;10893444;32;20023;-70
2022/03/11 10:19:10;;;;;;;16.23;11.98;;;11.10;66.70;;;;;;10904803;32;20023;-70
2022/03/11 10:25:16;;;;;;;15.65;10.27;;;11.20;66.50;;;;;;10881094;32;20035;-70
2022/03/11 10:31:18;;;;;;;35.40;12.55;;;11.30;66.90;;;;;;10906069;32;20447;-70
2022/03/11 10:38:08;;;;;;;37.58;13.90;;;11.50;66.40;;;;;;10905332;32;20062;-70
2022/03/11 10:44:12;;;;;;;23.35;12.98;;;11.50;65.60;;;;;;10886185;32;20043;-70
2022/03/11 10:50:36;;;;;;;11.98;8.25;;;11.60;66.30;;;;;;10902619;32;20352;-70
2022/03/11 10:56:42;;;;;;;10.55;7.30;;;11.60;66.30;;;;;;10900751;32;20027;-70
2022/03/11 11:02:45;;;;;;;11.10;6.85;;;11.70;66.00;;;;;;10905294;32;20051;-70
2022/03/11 11:08:46;;;;;;;11.43;8.30;;;11.70;66.00;;;;;;10901575;32;20403;-70
2022/03/11 11:14:48;;;;;;;11.60;8.32;;;12.00;65.80;;;;;;10903192;32;20051;-70
2022/03/11 11:20:53;;;;;;;13.43;7.32;;;12.00;64.90;;;;;;10904939;32;20288;-70
2022/03/11 11:26:57;;;;;;;14.05;7.72;;;12.10;64.90;;;;;;10900890;32;20032;-67
2022/03/11 11:33:00;;;;;;;9.43;6.50;;;12.10;64.20;;;;;;10900617;32;20089;-67
2022/03/11 11:39:05;;;;;;;13.18;6.25;;;12.10;64.10;;;;;;10900468;32;20035;-68
2022/03/11 11:45:15;;;;;;;14.13;6.82;;;12.20;63.60;;;;;;10886655;32;20407;-68
2022/03/11 11:51:32;;;;;;;11.50;6.90;;;12.40;63.60;;;;;;10899933;32;20031;-68
2022/03/11 11:57:37;;;;;;;20.75;6.97;;;12.60;62.20;;;;;;10903436;32;20046;-68
2022/03/11 12:04:37;;;;;;;17.25;5.53;;;12.50;60.80;;;;;;10901924;32;20045;-68
2022/03/11 12:10:52;;;;;;;14.45;6.82;;;12.40;60.50;;;;;;10865051;32;20362;-68
2022/03/11 12:17:07;;;;;;;12.77;5.80;;;12.70;60.60;;;;;;10873818;32;20457;-68
2022/03/11 12:23:16;;;;;;;8.07;4.62;;;12.70;59.10;;;;;;10902024;32;20453;-68
2022/03/11 12:29:36;;;;;;;13.10;4.95;;;12.70;58.60;;;;;;10896987;32;20077;-67
2022/03/11 12:35:39;;;;;;;9.52;5.95;;;12.90;58.80;;;;;;10906810;32;20086;-68
2022/03/11 12:41:43;;;;;;;7.37;4.45;;;12.80;57.70;;;;;;10909801;32;20054;-68
2022/03/11 12:47:45;;;;;;;9.15;5.78;;;12.70;58.70;;;;;;10909652;32;20400;-67
2022/03/11 12:53:50;;;;;;;7.72;4.32;;;12.60;57.90;;;;;;10906817;32;20062;-68
2022/03/11 12:59:52;;;;;;;7.87;4.57;;;12.70;57.30;;;;;;10892637;32;20023;-68
2022/03/11 13:06:00;;;;;;;11.65;5.20;;;12.70;57.00;;;;;;10905150;32;20065;-68
2022/03/11 13:12:24;;;;;;;9.53;4.67;;;12.50;57.20;;;;;;10908706;32;20061;-68
2022/03/11 13:18:28;;;;;;;7.37;4.15;;;12.60;57.00;;;;;;10907463;32;20016;-67
2022/03/11 13:24:31;;;;;;;8.68;4.70;;;12.60;57.80;;;;;;10905821;32;20395;-69
2022/03/11 13:30:44;;;;;;;6.62;4.05;;;12.60;57.50;;;;;;10905794;32;20434;-67
2022/03/11 13:36:48;;;;;;;8.68;5.43;;;12.50;57.20;;;;;;10904713;32;20027;-67
2022/03/11 13:42:54;;;;;;;15.27;6.00;;;12.30;57.50;;;;;;10907654;32;20030;-68
2022/03/11 13:49:00;;;;;;;13.35;7.15;;;12.30;57.60;;;;;;10904241;32;20328;-70
2022/03/11 13:55:30;;;;;;;11.52;4.82;;;12.40;57.40;;;;;;10905204;32;20027;-70
2022/03/11 14:01:38;;;;;;;6.10;3.83;;;12.40;57.10;;;;;;10904583;32;20054;-70
2022/03/11 14:08:05;;;;;;;8.95;5.12;;;12.40;57.40;;;;;;10903837;32;20027;-69
2022/03/11 14:14:27;;;;;;;11.32;6.47;;;12.40;56.60;;;;;;10870355;32;20031;-68
2022/03/11 14:20:31;;;;;;;13.35;7.37;;;12.50;56.20;;;;;;10867314;32;20055;-69
2022/03/11 14:26:33;;;;;;;7.78;4.93;;;12.40;55.60;;;;;;10864044;32;20032;-67
2022/03/11 14:32:38;;;;;;;14.50;9.52;;;12.40;57.10;;;;;;10888552;32;20354;-70
2022/03/11 14:38:56;;;;;;;16.20;7.05;;;12.70;56.80;;;;;;10889682;32;20042;-70
2022/03/11 14:45:06;;;;;;;12.80;6.50;;;12.70;56.30;;;;;;10891517;32;20038;-67
2022/03/11 14:51:08;;;;;;;8.40;4.78;;;12.80;55.90;;;;;;10897732;32;20062;-70
2022/03/11 15:04:42;;;;;;;14.63;5.22;;;13.10;55.80;;;;;;10713400;33;20381;-70
2022/03/11 15:10:47;;;;;;;9.95;5.07;;;13.20;56.60;;;;;;10734073;33;20429;-70
2022/03/11 15:16:50;;;;;;;7.37;3.72;;;13.30;54.90;;;;;;10227823;27;16855029;-70
2022/03/11 15:23:00;;;;;;;10.25;5.12;;;13.50;55.60;;;;;;10678013;33;20405;-70
2022/03/11 15:29:03;;;;;;;11.63;8.30;;;13.60;54.70;;;;;;10676915;33;20359;-70
2022/03/11 15:35:23;;;;;;;9.45;5.30;;;13.20;53.40;;;;;;10716037;33;20090;-70
2022/03/11 15:41:25;;;;;;;10.18;5.87;;;12.90;55.00;;;;;;10789121;33;20393;-70
2022/03/11 15:47:28;;;;;;;11.50;6.28;;;12.80;55.30;;;;;;10804781;33;20058;-69
2022/03/11 15:53:48;;;;;;;6.50;4.50;;;12.70;55.90;;;;;;10904604;32;20034;-70
2022/03/11 15:59:57;;;;;;;6.90;4.15;;;12.60;55.10;;;;;;10922556;32;20031;-69
2022/03/11 16:06:00;;;;;;;8.95;5.57;;;12.30;55.20;;;;;;10938098;32;20031;-69
2022/03/11 16:12:04;;;;;;;7.03;4.07;;;12.30;55.70;;;;;;10946811;32;20054;-70
2022/03/11 16:18:11;;;;;;;9.05;6.12;;;12.20;55.90;;;;;;10923366;32;20042;-70
2022/03/11 16:24:18;;;;;;;11.27;4.93;;;12.30;56.20;;;;;;10923851;32;20066;-70
2022/03/11 16:30:23;;;;;;;7.32;4.62;;;12.20;56.30;;;;;;10925730;32;20050;-67
2022/03/11 16:36:27;;;;;;;7.93;4.55;;;12.10;57.30;;;;;;10926160;32;20060;-70
2022/03/11 16:42:29;;;;;;;4.90;2.80;;;12.20;57.90;;;;;;10926271;32;20203;-70
2022/03/11 16:48:32;;;;;;;6.60;3.80;;;12.20;58.00;;;;;;10947492;32;20049;-70
2022/03/11 16:54:37;;;;;;;6.12;3.08;;;12.20;58.30;;;;;;10946809;32;20390;-69
2022/03/11 17:01:03;;;;;;;7.10;4.70;;;12.20;58.50;;;;;;10943557;32;20030;-69
2022/03/11 17:07:07;;;;;;;10.63;6.12;;;12.10;58.50;;;;;;10944680;32;20061;-69
2022/03/11 17:13:11;;;;;;;9.18;4.68;;;12.00;59.40;;;;;;10943347;32;20027;-69
2022/03/11 17:19:14;;;;;;;10.75;4.78;;;12.00;59.40;;;;;;10937805;32;20456;-69
2022/03/11 17:25:17;;;;;;;12.50;4.60;;;12.10;59.70;;;;;;10911906;32;20036;-70
2022/03/11 17:31:19;;;;;;;8.15;3.08;;;12.00;59.70;;;;;;10909519;32;20035;-70
2022/03/11 17:37:22;;;;;;;8.07;3.85;;;12.00;60.20;;;;;;10907990;32;20442;-69
2022/03/11 17:43:53;;;;;;;8.13;2.97;;;12.10;60.20;;;;;;10906730;32;20046;-69
2022/03/11 17:49:59;;;;;;;6.93;3.80;;;12.10;60.20;;;;;;10906084;32;20026;-69
2022/03/11 17:56:02;;;;;;;7.97;4.15;;;12.10;60.50;;;;;;10914262;32;20031;-69
2022/03/11 18:02:23;;;;;;;9.45;4.53;;;12.00;61.10;;;;;;10905073;32;20023;-70
2022/03/11 18:09:07;;;;;;;7.28;3.20;;;11.90;61.20;;;;;;10906980;32;20046;-69
2022/03/11 18:15:10;;;;;;;6.90;2.50;;;11.90;61.40;;;;;;10902267;32;20462;-70
2022/03/11 18:21:13;;;;;;;5.65;3.78;;;12.00;61.30;;;;;;10906368;32;20023;-70
2022/03/11 18:27:16;;;;;;;6.22;2.47;;;12.00;61.40;;;;;;10906279;32;20023;-69
2022/03/11 18:33:19;;;;;;;6.35;3.10;;;12.10;61.90;;;;;;10903057;32;20058;-70
2022/03/11 18:39:24;;;;;;;5.55;3.30;;;12.10;61.90;;;;;;10902487;32;20050;-70
2022/03/11 18:45:28;;;;;;;6.12;4.35;;;12.00;61.90;;;;;;10914493;32;20041;-70
2022/03/11 18:51:32;;;;;;;10.82;6.18;;;12.00;62.20;;;;;;10943058;32;20035;-70
2022/03/11 18:57:36;;;;;;;6.37;4.30;;;12.00;62.20;;;;;;10942750;32;20027;-69
2022/03/11 19:03:41;;;;;;;7.35;5.50;;;12.00;62.10;;;;;;10942623;32;20398;-69
2022/03/11 19:09:45;;;;;;;9.60;6.43;;;11.90;62.30;;;;;;10941832;32;20019;-70
2022/03/11 19:16:05;;;;;;;9.82;6.90;;;11.90;62.20;;;;;;10941902;32;20054;-70
2022/03/11 19:22:08;;;;;;;7.57;5.07;;;12.00;61.80;;;;;;10941963;32;20041;-69
2022/03/11 19:28:22;;;;;;;7.72;5.68;;;12.00;62.00;;;;;;10940215;32;20049;-69
2022/03/11 19:34:50;;;;;;;12.37;6.57;;;12.00;62.20;;;;;;10937023;32;20039;-69
2022/03/11 19:40:56;;;;;;;8.77;5.43;;;12.20;62.00;;;;;;10941550;32;20123;-69
2022/03/11 19:47:01;;;;;;;9.10;5.82;;;12.20;61.80;;;;;;10938548;32;20030;-70
2022/03/11 19:53:06;;;;;;;11.30;6.37;;;12.30;62.00;;;;;;10940245;32;20032;-69
2022/03/11 19:59:11;;;;;;;12.32;8.77;;;12.40;61.90;;;;;;10939805;32;20035;-70
2022/03/11 20:05:14;;;;;;;12.85;8.18;;;12.40;62.00;;;;;;10941080;32;20358;-70
2022/03/11 20:11:27;;;;;;;10.65;7.37;;;12.20;62.00;;;;;;10940820;32;20050;-69
2022/03/11 20:17:30;;;;;;;14.55;8.30;;;12.20;62.20;;;;;;10940655;32;20026;-69
2022/03/11 20:23:32;;;;;;;12.80;8.52;;;12.20;62.30;;;;;;10940400;32;20406;-70
2022/03/11 20:37:25;;;;;;;9.85;6.85;;;11.90;62.60;;;;;;10941306;32;20058;-70
2022/03/11 20:43:29;;;;;;;11.27;7.28;;;12.00;62.70;;;;;;10945920;32;20437;-70
2022/03/11 20:49:31;;;;;;;11.63;8.68;;;12.00;62.70;;;;;;10932497;32;20027;-70
2022/03/11 20:55:34;;;;;;;12.00;8.75;;;11.90;62.90;;;;;;10940215;32;20035;-70
2022/03/11 21:01:44;;;;;;;13.75;9.15;;;11.90;63.00;;;;;;10944684;32;20027;-70
2022/03/11 21:07:59;;;;;;;13.27;9.07;;;11.90;63.10;;;;;;10947392;32;20460;-69
2022/03/11 21:14:09;;;;;;;11.60;7.53;;;11.90;63.20;;;;;;10946570;32;20065;-70
2022/03/11 21:20:14;;;;;;;12.37;8.10;;;11.90;63.30;;;;;;10946467;32;20026;-69
2022/03/11 21:26:45;;;;;;;9.90;6.65;;;11.70;63.50;;;;;;10946313;32;20057;-70
2022/03/11 21:32:49;;;;;;;9.23;6.28;;;11.50;63.80;;;;;;10945913;32;20062;-70
2022/03/11 21:38:55;;;;;;;13.52;6.93;;;11.40;64.10;;;;;;10945710;32;20057;-70
2022/03/11 21:44:59;;;;;;;13.88;8.82;;;11.50;64.10;;;;;;10941384;32;20359;-69
2022/03/11 21:51:20;;;;;;;18.52;9.98;;;11.50;64.00;;;;;;10944938;32;20034;-70
2022/03/11 21:57:26;;;;;;;17.02;10.95;;;11.60;63.80;;;;;;10944954;32;20062;-69
2022/03/11 22:03:40;;;;;;;13.62;8.88;;;11.60;63.80;;;;;;10944867;32;20461;-69
2022/03/11 22:10:23;;;;;;;19.00;12.02;;;11.60;63.60;;;;;;10944063;32;20395;-70
2022/03/11 22:16:28;;;;;;;14.45;10.27;;;11.50;63.50;;;;;;10944383;32;20027;-70
2022/03/11 22:22:31;;;;;;;11.70;7.78;;;11.50;63.60;;;;;;10943286;32;20046;-70
2022/03/11 22:28:34;;;;;;;15.57;8.88;;;11.30;63.80;;;;;;10944007;32;20049;-69
2022/03/11 22:34:42;;;;;;;16.75;10.57;;;11.00;64.60;;;;;;10942776;32;20035;-70
2022/03/11 22:41:14;;;;;;;17.60;10.80;;;10.90;64.90;;;;;;10941973;32;20065;-69
2022/03/11 22:47:19;;;;;;;19.77;11.73;;;10.90;64.90;;;;;;10943266;32;20019;-69
2022/03/11 22:53:25;;;;;;;19.42;13.60;;;11.10;64.70;;;;;;10943063;32;20300;-69
2022/03/11 22:59:31;;;;;;;16.27;11.90;;;11.10;64.70;;;;;;10938688;32;20053;-70
2022/03/11 23:05:38;;;;;;;20.05;14.18;;;11.20;64.50;;;;;;10938360;32;20425;-69
2022/03/11 23:11:41;;;;;;;16.95;13.02;;;11.20;64.10;;;;;;10942500;32;20066;-70
2022/03/11 23:17:43;;;;;;;21.75;15.40;;;11.20;64.00;;;;;;10929539;27;20050;-69
2022/03/11 23:23:45;;;;;;;19.45;13.62;;;11.20;63.90;;;;;;10904362;32;20023;-70
2022/03/11 23:29:47;;;;;;;19.90;13.90;;;11.20;64.00;;;;;;10904261;32;20425;-70
2022/03/11 23:35:50;;;;;;;17.75;13.45;;;11.00;64.10;;;;;;10904109;32;20059;-69
2022/03/11 23:42:06;;;;;;;16.75;12.80;;;11.10;63.80;;;;;;10903944;32;20024;-69
2022/03/11 23:48:09;;;;;;;18.50;13.62;;;11.10;64.20;;;;;;10903738;32;20046;-70
2022/03/11 23:54:11;;;;;;;21.10;15.40;;;11.10;64.70;;;;;;10903469;32;20347;-70
